createdAt,value
2022-09-18T00:00:53.689Z,0.00
2022-09-18T00:01:53.713Z,0.00
2022-09-18T00:02:53.687Z,0.00
2022-09-18T00:03:53.651Z,0.00
2022-09-18T00:04:53.645Z,0.00
2022-09-18T00:05:53.612Z,0.00
2022-09-18T00:06:53.619Z,0.00
2022-09-18T00:07:53.624Z,0.00
2022-09-18T00:08:53.605Z,0.00
2022-09-18T00:09:53.582Z,0.00
2022-09-18T00:10:53.582Z,0.00
2022-09-18T00:11:53.564Z,0.00
2022-09-18T00:12:53.545Z,0.00
2022-09-18T00:13:53.547Z,0.00
2022-09-18T00:14:53.541Z,0.00
2022-09-18T00:15:53.542Z,0.00
2022-09-18T00:16:53.512Z,0.00
2022-09-18T00:17:53.502Z,0.00
2022-09-18T00:18:53.495Z,0.00
2022-09-18T00:19:53.472Z,0.00
2022-09-18T00:20:53.781Z,0.00
2022-09-18T00:21:53.458Z,0.00
2022-09-18T00:22:53.456Z,0.00
2022-09-18T00:23:53.436Z,0.00
2022-09-18T00:24:53.427Z,0.00
2022-09-18T00:25:53.413Z,0.00
2022-09-18T00:26:53.404Z,0.00
2022-09-18T00:27:53.542Z,0.00
2022-09-18T00:28:53.412Z,0.00
2022-09-18T00:29:53.373Z,0.00
2022-09-18T00:30:53.413Z,0.00
2022-09-18T00:31:53.450Z,0.00
2022-09-18T00:32:53.352Z,0.00
2022-09-18T00:33:53.332Z,0.00
2022-09-18T00:34:53.318Z,0.00
2022-09-18T00:35:53.305Z,0.00
2022-09-18T00:36:53.306Z,0.00
2022-09-18T00:37:53.283Z,0.00
2022-09-18T00:38:53.268Z,0.00
2022-09-18T00:39:53.317Z,0.00
2022-09-18T00:40:53.255Z,0.00
2022-09-18T00:41:53.499Z,0.00
2022-09-18T00:42:53.233Z,0.00
2022-09-18T00:43:53.224Z,0.00
2022-09-18T00:44:53.225Z,0.00
2022-09-18T00:45:53.203Z,0.00
2022-09-18T00:46:53.299Z,0.00
2022-09-18T00:47:53.193Z,0.00
2022-09-18T00:48:53.180Z,0.00
2022-09-18T00:49:53.165Z,0.00
2022-09-18T00:50:53.141Z,0.00
2022-09-18T00:51:53.135Z,0.00
2022-09-18T00:52:53.129Z,0.00
2022-09-18T00:53:53.114Z,0.00
2022-09-18T00:54:53.120Z,0.00
2022-09-18T00:55:53.092Z,0.00
2022-09-18T00:56:53.074Z,0.00
2022-09-18T00:57:53.084Z,0.00
2022-09-18T00:58:53.154Z,0.00
2022-09-18T00:59:53.057Z,0.00
2022-09-18T01:00:53.051Z,0.00
2022-09-18T01:01:53.093Z,0.00
2022-09-18T01:02:53.009Z,0.00
2022-09-18T01:03:53.005Z,0.00
2022-09-18T01:04:53.002Z,0.00
2022-09-18T01:05:52.992Z,0.00
2022-09-18T01:06:52.975Z,0.00
2022-09-18T01:07:52.971Z,0.00
2022-09-18T01:08:52.956Z,0.00
2022-09-18T01:09:52.948Z,0.00
2022-09-18T01:10:52.938Z,0.00
2022-09-18T01:11:52.941Z,0.00
2022-09-18T01:12:52.921Z,0.00
2022-09-18T01:13:52.912Z,0.00
2022-09-18T01:14:52.894Z,0.00
2022-09-18T01:15:52.967Z,0.00
2022-09-18T01:16:52.877Z,0.00
2022-09-18T01:17:52.868Z,0.00
2022-09-18T01:18:52.842Z,0.00
2022-09-18T01:19:52.838Z,0.00
2022-09-18T01:20:52.819Z,0.00
2022-09-18T01:21:52.810Z,0.00
2022-09-18T01:22:52.792Z,0.00
2022-09-18T01:23:52.799Z,0.00
2022-09-18T01:24:52.779Z,0.00
2022-09-18T01:25:52.781Z,0.00
2022-09-18T01:26:52.766Z,0.00
2022-09-18T01:27:52.744Z,0.00
2022-09-18T01:28:52.738Z,0.00
2022-09-18T01:29:52.971Z,0.00
2022-09-18T01:30:52.765Z,0.00
2022-09-18T01:31:52.721Z,0.00
2022-09-18T01:32:52.690Z,0.00
2022-09-18T01:33:52.704Z,0.00
2022-09-18T01:34:52.669Z,0.00
2022-09-18T01:35:52.710Z,0.00
2022-09-18T01:36:53.045Z,0.00
2022-09-18T01:37:52.643Z,0.00
2022-09-18T01:38:52.634Z,0.00
2022-09-18T01:39:52.670Z,0.00
2022-09-18T01:40:52.601Z,0.00
2022-09-18T01:41:52.608Z,0.00
2022-09-18T01:42:52.594Z,0.00
2022-09-18T01:43:52.590Z,0.00
2022-09-18T01:44:52.550Z,0.00
2022-09-18T01:45:52.679Z,0.00
2022-09-18T01:46:52.566Z,0.00
2022-09-18T01:47:53.315Z,0.00
2022-09-18T01:48:52.520Z,0.00
2022-09-18T01:49:52.512Z,0.00
2022-09-18T01:50:52.517Z,0.00
2022-09-18T01:51:52.497Z,0.00
2022-09-18T01:52:52.485Z,0.00
2022-09-18T01:53:52.488Z,0.00
2022-09-18T01:54:52.455Z,0.00
2022-09-18T01:55:52.452Z,0.00
2022-09-18T01:56:52.424Z,0.00
2022-09-18T01:57:52.431Z,0.00
2022-09-18T01:58:52.432Z,0.00
2022-09-18T01:59:52.412Z,0.00
2022-09-18T02:00:52.444Z,0.00
2022-09-18T02:01:52.469Z,0.00
2022-09-18T02:02:52.460Z,0.00
2022-09-18T02:03:52.378Z,0.00
2022-09-18T02:04:52.345Z,0.00
2022-09-18T02:05:52.344Z,0.00
2022-09-18T02:06:52.330Z,0.00
2022-09-18T02:07:52.322Z,0.00
2022-09-18T02:08:52.312Z,0.00
2022-09-18T02:09:52.329Z,0.00
2022-09-18T02:10:52.290Z,0.00
2022-09-18T02:11:52.281Z,0.00
2022-09-18T02:12:52.272Z,0.00
2022-09-18T02:13:52.260Z,0.00
2022-09-18T02:14:52.251Z,0.00
2022-09-18T02:15:52.254Z,0.00
2022-09-18T02:16:52.226Z,0.00
2022-09-18T02:17:52.222Z,0.00
2022-09-18T02:18:52.204Z,0.00
2022-09-18T02:19:52.194Z,0.00
2022-09-18T02:20:52.187Z,0.00
2022-09-18T02:21:52.192Z,0.00
2022-09-18T02:22:52.160Z,0.00
2022-09-18T02:23:52.310Z,0.00
2022-09-18T02:24:52.155Z,0.00
2022-09-18T02:25:52.141Z,0.00
2022-09-18T02:26:52.127Z,0.00
2022-09-18T02:27:52.118Z,0.00
2022-09-18T02:28:52.100Z,0.00
2022-09-18T02:29:52.090Z,0.00
2022-09-18T02:30:52.087Z,0.00
2022-09-18T02:31:52.272Z,0.00
2022-09-18T02:32:52.049Z,0.00
2022-09-18T02:33:52.055Z,0.00
2022-09-18T02:34:52.046Z,0.00
2022-09-18T02:35:52.039Z,0.00
2022-09-18T02:36:52.008Z,0.00
2022-09-18T02:37:52.009Z,0.00
2022-09-18T02:38:51.991Z,0.00
2022-09-18T02:39:52.054Z,0.00
2022-09-18T02:40:51.973Z,0.00
2022-09-18T02:41:51.964Z,0.00
2022-09-18T02:42:51.949Z,0.00
2022-09-18T02:43:51.940Z,0.00
2022-09-18T02:44:51.932Z,0.00
2022-09-18T02:45:51.913Z,0.00
2022-09-18T02:46:51.958Z,0.00
2022-09-18T02:47:51.896Z,0.00
2022-09-18T02:48:51.882Z,0.00
2022-09-18T02:49:51.877Z,0.00
2022-09-18T02:50:51.862Z,0.00
2022-09-18T02:51:51.850Z,0.00
2022-09-18T02:52:51.846Z,0.00
2022-09-18T02:53:51.832Z,0.00
2022-09-18T02:54:51.818Z,0.00
2022-09-18T02:55:51.819Z,0.00
2022-09-18T02:56:51.801Z,0.00
2022-09-18T02:57:51.785Z,0.00
2022-09-18T02:58:51.794Z,0.00
2022-09-18T02:59:51.763Z,0.00
2022-09-18T03:00:51.769Z,0.00
2022-09-18T03:01:51.883Z,0.00
2022-09-18T03:02:51.857Z,0.00
2022-09-18T03:03:51.754Z,0.00
2022-09-18T03:04:51.720Z,0.00
2022-09-18T03:05:51.705Z,0.00
2022-09-18T03:06:51.683Z,0.00
2022-09-18T03:07:51.683Z,0.00
2022-09-18T03:08:51.673Z,0.00
2022-09-18T03:09:51.670Z,0.00
2022-09-18T03:10:51.645Z,0.00
2022-09-18T03:11:51.642Z,0.00
2022-09-18T03:12:51.628Z,0.00
2022-09-18T03:13:51.609Z,0.00
2022-09-18T03:14:51.610Z,0.00
2022-09-18T03:15:51.630Z,0.00
2022-09-18T03:16:51.582Z,0.00
2022-09-18T03:17:51.579Z,0.00
2022-09-18T03:18:51.655Z,0.00
2022-09-18T03:19:51.564Z,0.00
2022-09-18T03:20:51.532Z,0.00
2022-09-18T03:21:51.533Z,0.00
2022-09-18T03:22:51.519Z,0.00
2022-09-18T03:23:51.511Z,0.00
2022-09-18T03:24:51.502Z,0.00
2022-09-18T03:25:51.497Z,0.00
2022-09-18T03:26:51.479Z,0.00
2022-09-18T03:27:51.465Z,0.00
2022-09-18T03:28:51.466Z,0.00
2022-09-18T03:29:51.442Z,0.00
2022-09-18T03:30:51.422Z,0.00
2022-09-18T03:31:51.472Z,0.00
2022-09-18T03:32:51.415Z,0.00
2022-09-18T03:33:51.597Z,0.00
2022-09-18T03:34:51.397Z,0.00
2022-09-18T03:35:51.383Z,0.00
2022-09-18T03:36:51.370Z,0.00
2022-09-18T03:37:51.378Z,0.00
2022-09-18T03:38:51.342Z,0.00
2022-09-18T03:39:51.399Z,0.00
2022-09-18T03:40:51.324Z,0.00
2022-09-18T03:41:51.320Z,0.00
2022-09-18T03:42:51.307Z,0.00
2022-09-18T03:43:51.287Z,0.00
2022-09-18T03:44:51.309Z,0.00
2022-09-18T03:45:51.270Z,0.00
2022-09-18T03:46:51.332Z,0.00
2022-09-18T03:47:51.262Z,0.00
2022-09-18T03:48:51.316Z,0.00
2022-09-18T03:49:51.245Z,0.00
2022-09-18T03:50:51.230Z,0.00
2022-09-18T03:51:51.212Z,0.00
2022-09-18T03:52:51.763Z,0.00
2022-09-18T03:53:51.229Z,0.00
2022-09-18T03:54:51.179Z,0.00
2022-09-18T03:55:51.176Z,0.00
2022-09-18T03:56:51.167Z,0.00
2022-09-18T03:57:51.138Z,0.00
2022-09-18T03:58:51.145Z,0.00
2022-09-18T03:59:51.130Z,0.00
2022-09-18T04:00:51.121Z,0.00
2022-09-18T04:01:51.132Z,0.00
2022-09-18T04:02:51.139Z,0.00
2022-09-18T04:03:51.086Z,0.00
2022-09-18T04:04:51.125Z,0.00
2022-09-18T04:05:51.072Z,0.00
2022-09-18T04:06:51.049Z,0.00
2022-09-18T04:07:51.044Z,0.00
2022-09-18T04:08:51.030Z,0.00
2022-09-18T04:09:51.011Z,0.00
2022-09-18T04:10:51.012Z,0.00
2022-09-18T04:11:50.998Z,0.00
2022-09-18T04:12:50.993Z,0.00
2022-09-18T04:13:50.970Z,0.00
2022-09-18T04:14:50.951Z,0.00
2022-09-18T04:15:51.028Z,0.00
2022-09-18T04:16:50.941Z,0.00
2022-09-18T04:17:50.945Z,0.00
2022-09-18T04:18:50.991Z,0.00
2022-09-18T04:19:53.611Z,0.00
2022-09-18T04:20:50.908Z,0.00
2022-09-18T04:21:51.040Z,0.00
2022-09-18T04:22:50.880Z,0.00
2022-09-18T04:23:50.862Z,0.00
2022-09-18T04:24:50.853Z,0.00
2022-09-18T04:25:50.841Z,0.00
2022-09-18T04:26:50.836Z,0.00
2022-09-18T04:27:50.831Z,0.00
2022-09-18T04:28:50.817Z,0.00
2022-09-18T04:29:50.803Z,0.00
2022-09-18T04:30:50.806Z,0.00
2022-09-18T04:31:50.807Z,0.00
2022-09-18T04:32:50.772Z,0.00
2022-09-18T04:33:50.779Z,0.00
2022-09-18T04:34:50.745Z,0.00
2022-09-18T04:35:50.812Z,0.00
2022-09-18T04:36:50.731Z,0.00
2022-09-18T04:37:50.719Z,0.00
2022-09-18T04:38:50.703Z,0.00
2022-09-18T04:39:50.694Z,0.00
2022-09-18T04:40:50.675Z,0.00
2022-09-18T04:41:50.681Z,0.00
2022-09-18T04:42:50.662Z,0.00
2022-09-18T04:43:50.769Z,0.00
2022-09-18T04:44:50.639Z,0.00
2022-09-18T04:45:50.641Z,0.00
2022-09-18T04:46:50.930Z,0.00
2022-09-18T04:47:50.623Z,0.00
2022-09-18T04:48:50.658Z,0.00
2022-09-18T04:49:50.596Z,0.00
2022-09-18T04:50:50.571Z,0.00
2022-09-18T04:51:50.562Z,0.00
2022-09-18T04:52:50.554Z,0.00
2022-09-18T04:53:50.555Z,0.00
2022-09-18T04:54:50.531Z,0.00
2022-09-18T04:55:50.512Z,5.62
2022-09-18T04:56:50.513Z,5.62
2022-09-18T04:57:54.375Z,5.62
2022-09-18T04:58:50.500Z,5.62
2022-09-18T04:59:50.480Z,11.25
2022-09-18T05:00:50.489Z,11.25
2022-09-18T05:01:50.481Z,11.25
2022-09-18T05:02:50.447Z,11.25
2022-09-18T05:03:50.457Z,16.88
2022-09-18T05:04:50.442Z,16.88
2022-09-18T05:05:50.432Z,16.88
2022-09-18T05:06:50.475Z,16.88
2022-09-18T05:07:50.402Z,22.50
2022-09-18T05:08:50.381Z,22.50
2022-09-18T05:09:50.377Z,22.50
2022-09-18T05:10:50.368Z,22.50
2022-09-18T05:11:50.354Z,28.12
2022-09-18T05:12:50.361Z,28.12
2022-09-18T05:13:50.321Z,33.75
2022-09-18T05:14:50.318Z,33.75
2022-09-18T05:15:50.383Z,33.75
2022-09-18T05:16:50.299Z,33.75
2022-09-18T05:17:50.292Z,33.75
2022-09-18T05:18:50.365Z,33.75
2022-09-18T05:19:50.264Z,39.38
2022-09-18T05:20:50.391Z,39.38
2022-09-18T05:21:50.265Z,39.38
2022-09-18T05:22:50.258Z,39.38
2022-09-18T05:23:50.219Z,39.38
2022-09-18T05:24:50.214Z,39.38
2022-09-18T05:25:50.191Z,39.38
2022-09-18T05:26:50.197Z,39.38
2022-09-18T05:27:50.178Z,39.38
2022-09-18T05:28:50.192Z,45.00
2022-09-18T05:29:50.160Z,45.00
2022-09-18T05:30:50.162Z,50.62
2022-09-18T05:31:50.186Z,50.62
2022-09-18T05:32:50.123Z,56.25
2022-09-18T05:33:50.119Z,50.62
2022-09-18T05:34:50.111Z,50.62
2022-09-18T05:35:50.092Z,56.25
2022-09-18T05:36:50.099Z,56.25
2022-09-18T05:37:50.291Z,50.62
2022-09-18T05:38:50.066Z,50.62
2022-09-18T05:39:50.050Z,50.62
2022-09-18T05:40:50.111Z,50.62
2022-09-18T05:41:50.321Z,50.62
2022-09-18T05:42:50.024Z,50.62
2022-09-18T05:43:50.015Z,50.62
2022-09-18T05:44:50.000Z,50.62
2022-09-18T05:45:50.028Z,50.62
2022-09-18T05:46:50.121Z,50.62
2022-09-18T05:47:49.979Z,45.00
2022-09-18T05:48:49.970Z,50.62
2022-09-18T05:49:49.942Z,50.62
2022-09-18T05:50:49.929Z,50.62
2022-09-18T05:51:49.918Z,50.62
2022-09-18T05:52:49.920Z,50.62
2022-09-18T05:53:49.901Z,50.62
2022-09-18T05:54:49.902Z,50.62
2022-09-18T05:55:49.870Z,50.62
2022-09-18T05:56:49.870Z,50.62
2022-09-18T05:57:49.851Z,50.62
2022-09-18T05:58:49.871Z,45.00
2022-09-18T05:59:49.837Z,45.00
2022-09-18T06:00:49.823Z,45.00
2022-09-18T06:01:49.885Z,45.00
2022-09-18T06:02:49.870Z,45.00
2022-09-18T06:03:49.792Z,50.62
2022-09-18T06:04:49.789Z,50.62
2022-09-18T06:05:49.786Z,50.62
2022-09-18T06:06:49.776Z,50.62
2022-09-18T06:07:49.753Z,56.25
2022-09-18T06:08:49.773Z,56.25
2022-09-18T06:09:49.739Z,56.25
2022-09-18T06:10:49.740Z,56.25
2022-09-18T06:11:49.705Z,61.88
2022-09-18T06:12:49.712Z,67.50
2022-09-18T06:13:49.693Z,73.12
2022-09-18T06:14:49.687Z,78.75
2022-09-18T06:15:49.704Z,78.75
2022-09-18T06:16:49.690Z,78.75
2022-09-18T06:17:49.642Z,78.75
2022-09-18T06:18:49.660Z,84.38
2022-09-18T06:19:49.635Z,84.38
2022-09-18T06:20:49.621Z,84.38
2022-09-18T06:21:49.981Z,90.00
2022-09-18T06:22:49.613Z,90.00
2022-09-18T06:23:49.581Z,84.38
2022-09-18T06:24:49.581Z,90.00
2022-09-18T06:25:49.551Z,90.00
2022-09-18T06:26:49.568Z,95.62
2022-09-18T06:27:49.539Z,95.62
2022-09-18T06:28:49.535Z,101.25
2022-09-18T06:29:49.520Z,101.25
2022-09-18T06:30:49.516Z,106.88
2022-09-18T06:31:49.617Z,112.50
2022-09-18T06:32:49.510Z,112.50
2022-09-18T06:33:49.475Z,118.12
2022-09-18T06:34:49.476Z,123.75
2022-09-18T06:35:49.453Z,129.38
2022-09-18T06:36:49.449Z,129.38
2022-09-18T06:37:49.431Z,135.00
2022-09-18T06:38:49.421Z,135.00
2022-09-18T06:39:50.289Z,135.00
2022-09-18T06:40:49.404Z,129.38
2022-09-18T06:41:49.394Z,129.38
2022-09-18T06:42:49.380Z,135.00
2022-09-18T06:43:49.429Z,135.00
2022-09-18T06:44:49.368Z,140.62
2022-09-18T06:45:49.349Z,146.25
2022-09-18T06:46:49.465Z,151.88
2022-09-18T06:47:49.321Z,151.88
2022-09-18T06:48:49.368Z,157.50
2022-09-18T06:49:49.298Z,157.50
2022-09-18T06:50:49.300Z,157.50
2022-09-18T06:51:49.311Z,163.12
2022-09-18T06:52:49.278Z,157.50
2022-09-18T06:53:49.262Z,157.50
2022-09-18T06:54:49.287Z,157.50
2022-09-18T06:55:49.261Z,157.50
2022-09-18T06:56:49.245Z,151.88
2022-09-18T06:57:49.238Z,151.88
2022-09-18T06:58:49.265Z,151.88
2022-09-18T06:59:49.239Z,157.50
2022-09-18T07:00:49.308Z,157.50
2022-09-18T07:01:49.210Z,163.12
2022-09-18T07:02:49.203Z,163.12
2022-09-18T07:03:49.143Z,163.12
2022-09-18T07:04:49.141Z,157.50
2022-09-18T07:05:49.130Z,157.50
2022-09-18T07:06:49.149Z,157.50
2022-09-18T07:07:49.124Z,163.12
2022-09-18T07:08:49.095Z,163.12
2022-09-18T07:09:49.085Z,157.50
2022-09-18T07:10:49.148Z,157.50
2022-09-18T07:11:49.073Z,157.50
2022-09-18T07:12:49.099Z,163.12
2022-09-18T07:13:49.085Z,168.75
2022-09-18T07:14:49.056Z,174.38
2022-09-18T07:15:49.088Z,180.00
2022-09-18T07:16:49.018Z,185.62
2022-09-18T07:17:49.014Z,191.25
2022-09-18T07:18:49.176Z,202.50
2022-09-18T07:19:49.113Z,208.12
2022-09-18T07:20:48.982Z,219.38
2022-09-18T07:21:49.124Z,225.00
2022-09-18T07:22:48.935Z,225.00
2022-09-18T07:23:48.935Z,230.62
2022-09-18T07:24:49.146Z,230.62
2022-09-18T07:25:49.406Z,225.00
2022-09-18T07:26:48.914Z,225.00
2022-09-18T07:27:49.161Z,225.00
2022-09-18T07:28:48.887Z,219.38
2022-09-18T07:29:48.908Z,219.38
2022-09-18T07:30:49.010Z,219.38
2022-09-18T07:31:49.096Z,213.75
2022-09-18T07:32:49.001Z,208.12
2022-09-18T07:33:48.891Z,213.75
2022-09-18T07:34:49.014Z,213.75
2022-09-18T07:35:49.020Z,208.12
2022-09-18T07:36:48.833Z,208.12
2022-09-18T07:37:48.822Z,202.50
2022-09-18T07:38:48.832Z,213.75
2022-09-18T07:39:49.055Z,219.38
2022-09-18T07:40:49.051Z,236.25
2022-09-18T07:41:49.043Z,253.12
2022-09-18T07:42:48.867Z,264.38
2022-09-18T07:43:48.718Z,275.62
2022-09-18T07:44:48.713Z,281.25
2022-09-18T07:45:48.701Z,286.88
2022-09-18T07:46:48.961Z,275.62
2022-09-18T07:47:48.678Z,270.00
2022-09-18T07:48:48.797Z,264.38
2022-09-18T07:49:48.906Z,258.75
2022-09-18T07:50:48.655Z,253.12
2022-09-18T07:51:48.702Z,253.12
2022-09-18T07:52:48.703Z,253.12
2022-09-18T07:53:50.090Z,264.38
2022-09-18T07:54:48.615Z,247.50
2022-09-18T07:55:48.601Z,241.88
2022-09-18T07:56:48.743Z,219.38
2022-09-18T07:57:48.574Z,185.62
2022-09-18T07:58:48.579Z,168.75
2022-09-18T07:59:48.561Z,163.12
2022-09-18T08:00:48.546Z,174.38
2022-09-18T08:01:48.682Z,174.38
2022-09-18T08:02:48.763Z,168.75
2022-09-18T08:03:48.504Z,146.25
2022-09-18T08:04:48.596Z,163.12
2022-09-18T08:05:48.593Z,151.88
2022-09-18T08:06:48.605Z,118.12
2022-09-18T08:07:48.615Z,95.62
2022-09-18T08:08:52.996Z,101.25
2022-09-18T08:09:49.446Z,118.12
2022-09-18T08:10:48.438Z,101.25
2022-09-18T08:11:48.418Z,101.25
2022-09-18T08:12:48.636Z,112.50
2022-09-18T08:13:48.446Z,135.00
2022-09-18T08:14:48.387Z,157.50
2022-09-18T08:15:48.507Z,168.75
2022-09-18T08:16:48.387Z,174.38
2022-09-18T08:17:48.475Z,168.75
2022-09-18T08:18:48.681Z,168.75
2022-09-18T08:19:48.347Z,168.75
2022-09-18T08:20:48.682Z,157.50
2022-09-18T08:21:48.359Z,146.25
2022-09-18T08:22:48.326Z,135.00
2022-09-18T08:23:48.627Z,118.12
2022-09-18T08:24:48.509Z,112.50
2022-09-18T08:25:48.275Z,118.12
2022-09-18T08:26:48.730Z,129.38
2022-09-18T08:27:48.257Z,146.25
2022-09-18T08:28:48.342Z,157.50
2022-09-18T08:29:48.339Z,140.62
2022-09-18T08:30:48.351Z,135.00
2022-09-18T08:31:48.661Z,140.62
2022-09-18T08:32:48.978Z,140.62
2022-09-18T08:33:48.412Z,135.00
2022-09-18T08:34:48.372Z,151.88
2022-09-18T08:35:48.164Z,151.88
2022-09-18T08:36:48.395Z,157.50
2022-09-18T08:37:48.600Z,168.75
2022-09-18T08:38:48.402Z,180.00
2022-09-18T08:39:48.115Z,191.25
2022-09-18T08:40:48.408Z,196.88
2022-09-18T08:41:48.099Z,202.50
2022-09-18T08:42:48.084Z,202.50
2022-09-18T08:43:49.761Z,202.50
2022-09-18T08:44:48.226Z,202.50
2022-09-18T08:45:48.051Z,196.88
2022-09-18T08:46:48.092Z,191.25
2022-09-18T08:47:48.043Z,191.25
2022-09-18T08:48:48.035Z,191.25
2022-09-18T08:49:48.070Z,191.25
2022-09-18T08:50:48.069Z,191.25
2022-09-18T08:51:48.068Z,191.25
2022-09-18T08:52:48.084Z,196.88
2022-09-18T08:53:47.975Z,196.88
2022-09-18T08:54:47.955Z,191.25
2022-09-18T08:55:48.093Z,196.88
2022-09-18T08:56:47.943Z,202.50
2022-09-18T08:57:47.939Z,213.75
2022-09-18T08:58:47.925Z,219.38
2022-09-18T08:59:47.908Z,213.75
2022-09-18T09:00:47.997Z,208.12
2022-09-18T09:01:47.998Z,208.12
2022-09-18T09:02:47.869Z,213.75
2022-09-18T09:03:47.953Z,213.75
2022-09-18T09:04:47.869Z,213.75
2022-09-18T09:05:47.843Z,208.12
2022-09-18T09:06:47.970Z,191.25
2022-09-18T09:07:47.818Z,180.00
2022-09-18T09:08:47.983Z,174.38
2022-09-18T09:09:47.853Z,180.00
2022-09-18T09:10:47.814Z,185.62
2022-09-18T09:11:47.769Z,191.25
2022-09-18T09:12:48.012Z,202.50
2022-09-18T09:13:47.751Z,213.75
2022-09-18T09:14:57.586Z,219.38
2022-09-18T09:15:48.772Z,230.62
2022-09-18T09:16:47.821Z,236.25
2022-09-18T09:17:48.044Z,236.25
2022-09-18T09:18:47.728Z,230.62
2022-09-18T09:19:48.066Z,225.00
2022-09-18T09:20:47.850Z,213.75
2022-09-18T09:21:47.673Z,202.50
2022-09-18T09:22:47.669Z,196.88
2022-09-18T09:23:47.663Z,191.25
2022-09-18T09:24:47.654Z,191.25
2022-09-18T09:25:47.888Z,191.25
2022-09-18T09:26:47.607Z,196.88
2022-09-18T09:27:48.101Z,196.88
2022-09-18T09:28:47.699Z,202.50
2022-09-18T09:29:47.600Z,196.88
2022-09-18T09:30:47.703Z,191.25
2022-09-18T09:31:47.787Z,185.62
2022-09-18T09:32:47.719Z,180.00
2022-09-18T09:33:47.665Z,180.00
2022-09-18T09:34:47.530Z,180.00
2022-09-18T09:35:47.516Z,185.62
2022-09-18T09:36:47.549Z,191.25
2022-09-18T09:37:47.553Z,191.25
2022-09-18T09:38:47.556Z,191.25
2022-09-18T09:39:47.571Z,196.88
2022-09-18T09:40:47.569Z,202.50
2022-09-18T09:41:47.469Z,202.50
2022-09-18T09:42:47.575Z,208.12
2022-09-18T09:43:47.459Z,208.12
2022-09-18T09:44:47.416Z,213.75
2022-09-18T09:45:47.613Z,213.75
2022-09-18T09:46:47.454Z,213.75
2022-09-18T09:47:47.414Z,219.38
2022-09-18T09:48:47.623Z,225.00
2022-09-18T09:49:47.629Z,230.62
2022-09-18T09:50:47.642Z,236.25
2022-09-18T09:51:47.643Z,241.88
2022-09-18T09:52:47.370Z,247.50
2022-09-18T09:53:47.346Z,247.50
2022-09-18T09:54:47.327Z,241.88
2022-09-18T09:55:47.308Z,236.25
2022-09-18T09:56:47.289Z,236.25
2022-09-18T09:57:47.484Z,230.62
2022-09-18T09:58:47.307Z,230.62
2022-09-18T09:59:47.268Z,230.62
2022-09-18T10:00:47.317Z,230.62
2022-09-18T10:01:47.286Z,236.25
2022-09-18T10:02:47.247Z,253.12
2022-09-18T10:03:47.233Z,275.62
2022-09-18T10:04:47.204Z,298.12
2022-09-18T10:05:51.643Z,303.75
2022-09-18T10:06:48.198Z,298.12
2022-09-18T10:07:47.338Z,298.12
2022-09-18T10:08:47.349Z,303.75
2022-09-18T10:09:47.177Z,320.62
2022-09-18T10:10:47.150Z,331.88
2022-09-18T10:11:47.167Z,337.50
2022-09-18T10:12:47.118Z,337.50
2022-09-18T10:13:47.370Z,343.12
2022-09-18T10:14:47.584Z,343.12
2022-09-18T10:15:48.621Z,348.75
2022-09-18T10:16:47.188Z,354.38
2022-09-18T10:17:47.077Z,360.00
2022-09-18T10:18:47.397Z,365.62
2022-09-18T10:19:47.046Z,365.62
2022-09-18T10:20:47.046Z,365.62
2022-09-18T10:21:47.218Z,360.00
2022-09-18T10:22:47.223Z,354.38
2022-09-18T10:23:47.030Z,348.75
2022-09-18T10:24:47.047Z,331.88
2022-09-18T10:25:46.981Z,315.00
2022-09-18T10:26:47.041Z,286.88
2022-09-18T10:27:47.051Z,264.38
2022-09-18T10:28:46.960Z,258.75
2022-09-18T10:29:47.073Z,253.12
2022-09-18T10:30:47.072Z,253.12
2022-09-18T10:31:47.387Z,253.12
2022-09-18T10:32:47.095Z,225.00
2022-09-18T10:33:47.295Z,196.88
2022-09-18T10:34:47.310Z,196.88
2022-09-18T10:35:46.903Z,213.75
2022-09-18T10:36:46.919Z,219.38
2022-09-18T10:37:46.931Z,225.00
2022-09-18T10:38:47.128Z,241.88
2022-09-18T10:39:46.929Z,247.50
2022-09-18T10:40:46.919Z,264.38
2022-09-18T10:41:47.182Z,247.50
2022-09-18T10:42:46.944Z,241.88
2022-09-18T10:43:46.791Z,236.25
2022-09-18T10:44:46.788Z,241.88
2022-09-18T10:45:46.768Z,247.50
2022-09-18T10:46:46.808Z,230.62
2022-09-18T10:47:46.978Z,202.50
2022-09-18T10:48:46.778Z,196.88
2022-09-18T10:49:46.997Z,208.12
2022-09-18T10:50:46.998Z,208.12
2022-09-18T10:51:46.721Z,185.62
2022-09-18T10:52:47.015Z,168.75
2022-09-18T10:53:46.819Z,146.25
2022-09-18T10:54:46.690Z,135.00
2022-09-18T10:55:46.831Z,123.75
2022-09-18T10:56:46.652Z,123.75
2022-09-18T10:57:46.671Z,135.00
2022-09-18T10:58:46.643Z,151.88
2022-09-18T10:59:46.628Z,146.25
2022-09-18T11:00:46.696Z,163.12
2022-09-18T11:01:46.708Z,180.00
2022-09-18T11:02:46.584Z,196.88
2022-09-18T11:03:46.697Z,196.88
2022-09-18T11:04:46.903Z,196.88
2022-09-18T11:05:46.566Z,185.62
2022-09-18T11:06:46.560Z,202.50
2022-09-18T11:07:46.906Z,225.00
2022-09-18T11:08:46.903Z,219.38
2022-09-18T11:09:46.515Z,202.50
2022-09-18T11:10:46.516Z,185.62
2022-09-18T11:11:46.718Z,168.75
2022-09-18T11:12:46.530Z,151.88
2022-09-18T11:13:46.480Z,146.25
2022-09-18T11:14:46.972Z,146.25
2022-09-18T11:15:46.564Z,123.75
2022-09-18T11:16:46.643Z,90.00
2022-09-18T11:17:46.573Z,78.75
2022-09-18T11:18:46.577Z,67.50
2022-09-18T11:19:46.574Z,73.12
2022-09-18T11:20:46.387Z,78.75
2022-09-18T11:21:46.389Z,90.00
2022-09-18T11:22:46.404Z,78.75
2022-09-18T11:23:46.390Z,61.88
2022-09-18T11:24:47.513Z,56.25
2022-09-18T11:25:46.446Z,73.12
2022-09-18T11:26:46.415Z,78.75
2022-09-18T11:27:46.309Z,95.62
2022-09-18T11:28:46.427Z,112.50
2022-09-18T11:29:46.448Z,168.75
2022-09-18T11:30:46.445Z,196.88
2022-09-18T11:31:46.528Z,208.12
2022-09-18T11:32:46.271Z,225.00
2022-09-18T11:33:46.267Z,230.62
2022-09-18T11:34:46.268Z,236.25
2022-09-18T11:35:46.289Z,236.25
2022-09-18T11:36:46.276Z,247.50
2022-09-18T11:37:46.282Z,253.12
2022-09-18T11:38:46.288Z,253.12
2022-09-18T11:39:46.303Z,253.12
2022-09-18T11:40:46.343Z,247.50
2022-09-18T11:41:46.306Z,247.50
2022-09-18T11:42:46.151Z,241.88
2022-09-18T11:43:46.314Z,241.88
2022-09-18T11:44:46.330Z,241.88
2022-09-18T11:45:46.139Z,241.88
2022-09-18T11:46:46.344Z,236.25
2022-09-18T11:47:46.133Z,230.62
2022-09-18T11:48:46.144Z,230.62
2022-09-18T11:49:46.574Z,225.00
2022-09-18T11:50:46.091Z,225.00
2022-09-18T11:51:46.096Z,230.62
2022-09-18T11:52:46.174Z,230.62
2022-09-18T11:53:46.805Z,241.88
2022-09-18T11:54:46.186Z,247.50
2022-09-18T11:55:46.222Z,258.75
2022-09-18T11:56:45.992Z,258.75
2022-09-18T11:57:46.019Z,264.38
2022-09-18T11:58:46.060Z,264.38
2022-09-18T11:59:46.007Z,264.38
2022-09-18T12:00:46.226Z,264.38
2022-09-18T12:01:46.084Z,258.75
2022-09-18T12:02:46.153Z,253.12
2022-09-18T12:03:46.051Z,258.75
2022-09-18T12:04:45.921Z,258.75
2022-09-18T12:05:46.260Z,258.75
2022-09-18T12:06:46.261Z,264.38
2022-09-18T12:07:44.549Z,270.00
2022-09-18T12:08:44.524Z,275.62
2022-09-18T12:09:44.513Z,270.00
2022-09-18T12:10:44.494Z,270.00
2022-09-18T12:11:44.519Z,264.38
2022-09-18T12:12:44.535Z,264.38
2022-09-18T12:13:44.534Z,264.38
2022-09-18T12:14:44.548Z,270.00
2022-09-18T12:15:44.440Z,275.62
2022-09-18T12:16:46.016Z,275.62
2022-09-18T12:17:44.406Z,270.00
2022-09-18T12:18:44.417Z,258.75
2022-09-18T12:19:44.568Z,258.75
2022-09-18T12:20:44.574Z,264.38
2022-09-18T12:21:44.583Z,258.75
2022-09-18T12:22:44.585Z,270.00
2022-09-18T12:23:44.388Z,275.62
2022-09-18T12:24:44.395Z,275.62
2022-09-18T12:25:44.398Z,264.38
2022-09-18T12:26:44.615Z,258.75
2022-09-18T12:27:44.415Z,264.38
2022-09-18T12:28:44.409Z,275.62
2022-09-18T12:29:44.434Z,286.88
2022-09-18T12:30:44.431Z,292.50
2022-09-18T12:31:44.716Z,292.50
2022-09-18T12:32:44.643Z,292.50
2022-09-18T12:33:44.860Z,298.12
2022-09-18T12:34:44.241Z,298.12
2022-09-18T12:35:44.904Z,303.75
2022-09-18T12:36:44.258Z,309.38
2022-09-18T12:37:44.282Z,315.00
2022-09-18T12:38:45.151Z,320.62
2022-09-18T12:39:45.721Z,320.62
2022-09-18T12:40:45.156Z,315.00
2022-09-18T12:41:44.815Z,309.38
2022-09-18T12:42:44.958Z,303.75
2022-09-18T12:43:44.807Z,303.75
2022-09-18T12:44:44.806Z,298.12
2022-09-18T12:45:45.782Z,298.12
2022-09-18T12:46:44.793Z,298.12
2022-09-18T12:47:44.803Z,298.12
2022-09-18T12:48:44.812Z,292.50
2022-09-18T12:49:44.742Z,292.50
2022-09-18T12:50:44.722Z,286.88